sensor_id;sensor_type;location;lat;lon;timestamp;P1;durP1;ratioP1;P2;durP2;ratioP2
65717;SDS011;52445;52.466;-1.016;2023-12-14T00:01:44;7.03;;;3.60;;
65717;SDS011;52445;52.466;-1.016;2023-12-14T00:04:12;12.65;;;4.78;;
65717;SDS011;52445;52.466;-1.016;2023-12-14T00:06:39;6.40;;;4.18;;
65717;SDS011;52445;52.466;-1.016;2023-12-14T00:09:06;4.50;;;3.92;;
65717;SDS011;52445;52.466;-1.016;2023-12-14T00:11:38;7.68;;;3.78;;
65717;SDS011;52445;52.466;-1.016;2023-12-14T00:14:06;11.82;;;3.67;;
65717;SDS011;52445;52.466;-1.016;2023-12-14T00:16:33;3.45;;;2.92;;
65717;SDS011;52445;52.466;-1.016;2023-12-14T00:18:59;5.07;;;3.28;;
65717;SDS011;52445;52.466;-1.016;2023-12-14T00:21:26;6.00;;;3.25;;
65717;SDS011;52445;52.466;-1.016;2023-12-14T00:23:53;7.47;;;3.92;;
65717;SDS011;52445;52.466;-1.016;2023-12-14T00:26:20;6.20;;;4.07;;
65717;SDS011;52445;52.466;-1.016;2023-12-14T00:28:46;8.27;;;2.30;;
65717;SDS011;52445;52.466;-1.016;2023-12-14T00:31:13;6.75;;;3.90;;
65717;SDS011;52445;52.466;-1.016;2023-12-14T00:33:40;5.28;;;4.15;;
65717;SDS011;52445;52.466;-1.016;2023-12-14T00:36:07;4.07;;;3.08;;
65717;SDS011;52445;52.466;-1.016;2023-12-14T00:38:34;8.98;;;4.53;;
65717;SDS011;52445;52.466;-1.016;2023-12-14T00:41:00;6.75;;;4.20;;
65717;SDS011;52445;52.466;-1.016;2023-12-14T00:43:27;4.90;;;2.22;;
65717;SDS011;52445;52.466;-1.016;2023-12-14T00:45:54;5.75;;;3.85;;
65717;SDS011;52445;52.466;-1.016;2023-12-14T00:48:20;9.48;;;4.50;;
65717;SDS011;52445;52.466;-1.016;2023-12-14T00:50:47;5.25;;;3.22;;
65717;SDS011;52445;52.466;-1.016;2023-12-14T00:53:14;5.88;;;3.38;;
65717;SDS011;52445;52.466;-1.016;2023-12-14T00:55:40;9.73;;;4.72;;
65717;SDS011;52445;52.466;-1.016;2023-12-14T00:58:07;2.45;;;1.35;;
65717;SDS011;52445;52.466;-1.016;2023-12-14T01:00:34;7.97;;;4.65;;
65717;SDS011;52445;52.466;-1.016;2023-12-14T01:03:01;7.20;;;3.47;;
65717;SDS011;52445;52.466;-1.016;2023-12-14T01:05:27;4.68;;;3.05;;
65717;SDS011;52445;52.466;-1.016;2023-12-14T01:07:54;6.75;;;3.78;;
65717;SDS011;52445;52.466;-1.016;2023-12-14T01:10:21;7.97;;;2.15;;
65717;SDS011;52445;52.466;-1.016;2023-12-14T01:12:48;5.07;;;3.15;;
65717;SDS011;52445;52.466;-1.016;2023-12-14T01:15:15;4.50;;;3.17;;
65717;SDS011;52445;52.466;-1.016;2023-12-14T01:17:42;7.35;;;4.10;;
65717;SDS011;52445;52.466;-1.016;2023-12-14T01:20:08;5.50;;;4.80;;
65717;SDS011;52445;52.466;-1.016;2023-12-14T01:22:36;3.72;;;3.30;;
65717;SDS011;52445;52.466;-1.016;2023-12-14T01:25:03;9.30;;;3.75;;
65717;SDS011;52445;52.466;-1.016;2023-12-14T01:27:30;3.63;;;2.97;;
65717;SDS011;52445;52.466;-1.016;2023-12-14T01:29:57;11.05;;;3.85;;
65717;SDS011;52445;52.466;-1.016;2023-12-14T01:32:23;3.58;;;2.97;;
65717;SDS011;52445;52.466;-1.016;2023-12-14T01:34:50;8.43;;;4.15;;
65717;SDS011;52445;52.466;-1.016;2023-12-14T01:37:17;6.07;;;3.28;;
65717;SDS011;52445;52.466;-1.016;2023-12-14T01:39:43;6.32;;;3.08;;
65717;SDS011;52445;52.466;-1.016;2023-12-14T01:42:10;6.22;;;3.88;;
65717;SDS011;52445;52.466;-1.016;2023-12-14T01:44:37;5.50;;;4.18;;
65717;SDS011;52445;52.466;-1.016;2023-12-14T01:47:03;11.57;;;4.65;;
65717;SDS011;52445;52.466;-1.016;2023-12-14T01:49:30;5.07;;;4.68;;
65717;SDS011;52445;52.466;-1.016;2023-12-14T01:51:57;8.43;;;4.10;;
65717;SDS011;52445;52.466;-1.016;2023-12-14T01:54:23;5.85;;;4.15;;
65717;SDS011;52445;52.466;-1.016;2023-12-14T01:56:50;7.13;;;4.50;;
65717;SDS011;52445;52.466;-1.016;2023-12-14T01:59:16;7.55;;;3.70;;
65717;SDS011;52445;52.466;-1.016;2023-12-14T02:01:44;6.22;;;4.28;;
65717;SDS011;52445;52.466;-1.016;2023-12-14T02:04:13;6.40;;;2.72;;
65717;SDS011;52445;52.466;-1.016;2023-12-14T02:06:41;7.82;;;3.50;;
65717;SDS011;52445;52.466;-1.016;2023-12-14T02:09:07;13.65;;;4.70;;
65717;SDS011;52445;52.466;-1.016;2023-12-14T02:11:34;5.28;;;3.10;;
65717;SDS011;52445;52.466;-1.016;2023-12-14T02:14:03;10.10;;;4.30;;
65717;SDS011;52445;52.466;-1.016;2023-12-14T02:16:31;6.47;;;4.05;;
65717;SDS011;52445;52.466;-1.016;2023-12-14T02:18:58;6.38;;;3.80;;
65717;SDS011;52445;52.466;-1.016;2023-12-14T02:21:25;11.25;;;4.25;;
65717;SDS011;52445;52.466;-1.016;2023-12-14T02:23:52;7.28;;;4.38;;
65717;SDS011;52445;52.466;-1.016;2023-12-14T02:26:18;7.07;;;4.75;;
65717;SDS011;52445;52.466;-1.016;2023-12-14T02:28:45;12.73;;;5.05;;
65717;SDS011;52445;52.466;-1.016;2023-12-14T02:31:12;8.95;;;4.72;;
65717;SDS011;52445;52.466;-1.016;2023-12-14T02:33:39;9.20;;;6.03;;
65717;SDS011;52445;52.466;-1.016;2023-12-14T02:36:05;12.48;;;5.95;;
65717;SDS011;52445;52.466;-1.016;2023-12-14T02:38:32;7.93;;;4.60;;
65717;SDS011;52445;52.466;-1.016;2023-12-14T02:40:59;8.75;;;5.60;;
65717;SDS011;52445;52.466;-1.016;2023-12-14T02:43:26;11.07;;;5.47;;
65717;SDS011;52445;52.466;-1.016;2023-12-14T02:45:53;14.13;;;6.18;;
65717;SDS011;52445;52.466;-1.016;2023-12-14T02:48:21;9.25;;;5.38;;
65717;SDS011;52445;52.466;-1.016;2023-12-14T02:50:48;10.48;;;5.72;;
65717;SDS011;52445;52.466;-1.016;2023-12-14T02:53:14;8.68;;;5.40;;
65717;SDS011;52445;52.466;-1.016;2023-12-14T02:55:42;8.60;;;5.05;;
65717;SDS011;52445;52.466;-1.016;2023-12-14T02:58:10;9.63;;;6.28;;
65717;SDS011;52445;52.466;-1.016;2023-12-14T03:00:37;10.82;;;4.68;;
65717;SDS011;52445;52.466;-1.016;2023-12-14T03:03:03;9.55;;;6.68;;
65717;SDS011;52445;52.466;-1.016;2023-12-14T03:05:30;9.10;;;5.18;;
65717;SDS011;52445;52.466;-1.016;2023-12-14T03:07:57;9.50;;;5.95;;
65717;SDS011;52445;52.466;-1.016;2023-12-14T03:10:23;16.50;;;5.97;;
65717;SDS011;52445;52.466;-1.016;2023-12-14T03:12:50;11.57;;;6.43;;
65717;SDS011;52445;52.466;-1.016;2023-12-14T03:15:18;9.07;;;5.63;;
65717;SDS011;52445;52.466;-1.016;2023-12-14T03:17:45;12.40;;;6.20;;
65717;SDS011;52445;52.466;-1.016;2023-12-14T03:20:11;16.13;;;7.10;;
65717;SDS011;52445;52.466;-1.016;2023-12-14T03:22:40;13.55;;;5.90;;
65717;SDS011;52445;52.466;-1.016;2023-12-14T03:25:08;10.30;;;5.78;;
65717;SDS011;52445;52.466;-1.016;2023-12-14T03:27:36;15.27;;;5.60;;
65717;SDS011;52445;52.466;-1.016;2023-12-14T03:30:03;12.32;;;6.38;;
65717;SDS011;52445;52.466;-1.016;2023-12-14T03:32:34;12.80;;;6.72;;
65717;SDS011;52445;52.466;-1.016;2023-12-14T03:35:02;11.88;;;5.68;;
65717;SDS011;52445;52.466;-1.016;2023-12-14T03:37:29;10.70;;;4.88;;
65717;SDS011;52445;52.466;-1.016;2023-12-14T03:39:55;8.75;;;5.78;;
65717;SDS011;52445;52.466;-1.016;2023-12-14T03:42:22;9.40;;;4.15;;
65717;SDS011;52445;52.466;-1.016;2023-12-14T03:44:49;9.90;;;5.28;;
65717;SDS011;52445;52.466;-1.016;2023-12-14T03:47:16;11.30;;;5.68;;
65717;SDS011;52445;52.466;-1.016;2023-12-14T03:49:42;8.20;;;4.63;;
65717;SDS011;52445;52.466;-1.016;2023-12-14T03:52:09;12.50;;;4.70;;
65717;SDS011;52445;52.466;-1.016;2023-12-14T03:54:36;12.75;;;5.35;;
65717;SDS011;52445;52.466;-1.016;2023-12-14T03:57:03;9.23;;;3.67;;
65717;SDS011;52445;52.466;-1.016;2023-12-14T03:59:29;13.32;;;5.97;;
65717;SDS011;52445;52.466;-1.016;2023-12-14T04:01:58;5.00;;;2.75;;
65717;SDS011;52445;52.466;-1.016;2023-12-14T04:04:25;8.70;;;5.07;;
65717;SDS011;52445;52.466;-1.016;2023-12-14T04:06:51;11.60;;;3.25;;
65717;SDS011;52445;52.466;-1.016;2023-12-14T04:09:18;5.55;;;2.88;;
65717;SDS011;52445;52.466;-1.016;2023-12-14T04:11:45;7.25;;;3.03;;
65717;SDS011;52445;52.466;-1.016;2023-12-14T04:14:12;6.30;;;4.00;;
65717;SDS011;52445;52.466;-1.016;2023-12-14T04:16:39;13.48;;;5.43;;
65717;SDS011;52445;52.466;-1.016;2023-12-14T04:19:06;9.27;;;4.90;;
65717;SDS011;52445;52.466;-1.016;2023-12-14T04:21:36;7.57;;;4.57;;
65717;SDS011;52445;52.466;-1.016;2023-12-14T04:24:03;14.38;;;6.03;;
65717;SDS011;52445;52.466;-1.016;2023-12-14T04:26:30;8.68;;;5.15;;
65717;SDS011;52445;52.466;-1.016;2023-12-14T04:28:57;10.27;;;5.32;;
65717;SDS011;52445;52.466;-1.016;2023-12-14T04:31:24;8.82;;;5.10;;
65717;SDS011;52445;52.466;-1.016;2023-12-14T04:33:51;9.75;;;6.05;;
65717;SDS011;52445;52.466;-1.016;2023-12-14T04:36:17;7.15;;;4.47;;
65717;SDS011;52445;52.466;-1.016;2023-12-14T04:38:44;6.43;;;2.97;;
65717;SDS011;52445;52.466;-1.016;2023-12-14T04:41:12;4.65;;;2.80;;
65717;SDS011;52445;52.466;-1.016;2023-12-14T04:43:40;11.30;;;5.57;;
65717;SDS011;52445;52.466;-1.016;2023-12-14T04:46:07;8.38;;;3.97;;
65717;SDS011;52445;52.466;-1.016;2023-12-14T04:48:33;11.48;;;3.80;;
65717;SDS011;52445;52.466;-1.016;2023-12-14T04:51:00;8.45;;;4.65;;
65717;SDS011;52445;52.466;-1.016;2023-12-14T04:53:27;7.40;;;4.50;;
65717;SDS011;52445;52.466;-1.016;2023-12-14T04:55:53;8.95;;;5.43;;
65717;SDS011;52445;52.466;-1.016;2023-12-14T04:58:20;13.35;;;5.03;;
65717;SDS011;52445;52.466;-1.016;2023-12-14T05:00:47;9.55;;;6.22;;
65717;SDS011;52445;52.466;-1.016;2023-12-14T05:03:14;13.45;;;3.80;;
65717;SDS011;52445;52.466;-1.016;2023-12-14T05:05:40;8.40;;;5.05;;
65717;SDS011;52445;52.466;-1.016;2023-12-14T05:08:07;10.48;;;5.47;;
65717;SDS011;52445;52.466;-1.016;2023-12-14T05:10:34;14.00;;;6.45;;
65717;SDS011;52445;52.466;-1.016;2023-12-14T05:13:02;14.68;;;4.85;;
65717;SDS011;52445;52.466;-1.016;2023-12-14T05:15:29;8.07;;;5.53;;
65717;SDS011;52445;52.466;-1.016;2023-12-14T05:17:57;13.27;;;5.97;;
65717;SDS011;52445;52.466;-1.016;2023-12-14T05:20:23;11.45;;;4.45;;
65717;SDS011;52445;52.466;-1.016;2023-12-14T05:22:50;11.60;;;5.47;;
65717;SDS011;52445;52.466;-1.016;2023-12-14T05:25:17;13.40;;;7.07;;
65717;SDS011;52445;52.466;-1.016;2023-12-14T05:27:44;12.40;;;6.50;;
65717;SDS011;52445;52.466;-1.016;2023-12-14T05:30:11;11.07;;;5.88;;
65717;SDS011;52445;52.466;-1.016;2023-12-14T05:32:38;8.77;;;5.55;;
65717;SDS011;52445;52.466;-1.016;2023-12-14T05:35:05;10.65;;;5.55;;
65717;SDS011;52445;52.466;-1.016;2023-12-14T05:37:32;11.80;;;5.05;;
65717;SDS011;52445;52.466;-1.016;2023-12-14T05:39:59;7.18;;;4.25;;
65717;SDS011;52445;52.466;-1.016;2023-12-14T05:42:26;13.95;;;3.90;;
65717;SDS011;52445;52.466;-1.016;2023-12-14T05:44:53;12.18;;;5.50;;
65717;SDS011;52445;52.466;-1.016;2023-12-14T05:47:19;10.60;;;4.78;;
65717;SDS011;52445;52.466;-1.016;2023-12-14T05:49:46;8.30;;;4.28;;
65717;SDS011;52445;52.466;-1.016;2023-12-14T05:52:13;11.43;;;5.70;;
65717;SDS011;52445;52.466;-1.016;2023-12-14T05:54:40;8.23;;;4.75;;
65717;SDS011;52445;52.466;-1.016;2023-12-14T05:57:06;8.38;;;2.72;;
65717;SDS011;52445;52.466;-1.016;2023-12-14T05:59:33;7.70;;;2.53;;
65717;SDS011;52445;52.466;-1.016;2023-12-14T06:02:00;6.00;;;3.88;;
65717;SDS011;52445;52.466;-1.016;2023-12-14T06:04:27;14.73;;;5.18;;
65717;SDS011;52445;52.466;-1.016;2023-12-14T06:06:54;9.00;;;5.38;;
65717;SDS011;52445;52.466;-1.016;2023-12-14T06:09:21;9.65;;;5.15;;
65717;SDS011;52445;52.466;-1.016;2023-12-14T06:11:51;9.55;;;4.65;;
65717;SDS011;52445;52.466;-1.016;2023-12-14T06:14:18;9.93;;;4.85;;
65717;SDS011;52445;52.466;-1.016;2023-12-14T06:16:45;7.80;;;5.20;;
65717;SDS011;52445;52.466;-1.016;2023-12-14T06:19:12;10.85;;;4.75;;
65717;SDS011;52445;52.466;-1.016;2023-12-14T06:21:39;6.28;;;2.35;;
65717;SDS011;52445;52.466;-1.016;2023-12-14T06:24:07;7.70;;;4.35;;
65717;SDS011;52445;52.466;-1.016;2023-12-14T06:26:33;9.27;;;5.20;;
65717;SDS011;52445;52.466;-1.016;2023-12-14T06:29:00;15.35;;;5.63;;
65717;SDS011;52445;52.466;-1.016;2023-12-14T06:31:27;4.80;;;3.55;;
65717;SDS011;52445;52.466;-1.016;2023-12-14T06:33:54;10.30;;;5.57;;
65717;SDS011;52445;52.466;-1.016;2023-12-14T06:36:25;14.38;;;6.97;;
65717;SDS011;52445;52.466;-1.016;2023-12-14T06:38:56;17.98;;;8.27;;
65717;SDS011;52445;52.466;-1.016;2023-12-14T06:41:24;8.15;;;3.60;;
65717;SDS011;52445;52.466;-1.016;2023-12-14T06:43:52;14.43;;;5.78;;
65717;SDS011;52445;52.466;-1.016;2023-12-14T06:46:19;27.73;;;8.50;;
65717;SDS011;52445;52.466;-1.016;2023-12-14T06:48:46;8.52;;;2.72;;
65717;SDS011;52445;52.466;-1.016;2023-12-14T06:51:13;6.10;;;3.95;;
65717;SDS011;52445;52.466;-1.016;2023-12-14T06:53:40;8.18;;;4.82;;
65717;SDS011;52445;52.466;-1.016;2023-12-14T06:56:08;7.45;;;3.47;;
65717;SDS011;52445;52.466;-1.016;2023-12-14T06:58:41;6.68;;;3.55;;
65717;SDS011;52445;52.466;-1.016;2023-12-14T07:01:12;7.40;;;3.75;;
65717;SDS011;52445;52.466;-1.016;2023-12-14T07:03:41;7.20;;;3.55;;
65717;SDS011;52445;52.466;-1.016;2023-12-14T07:06:11;13.63;;;4.07;;
65717;SDS011;52445;52.466;-1.016;2023-12-14T07:08:42;10.80;;;3.80;;
65717;SDS011;52445;52.466;-1.016;2023-12-14T07:11:09;6.15;;;3.45;;
65717;SDS011;52445;52.466;-1.016;2023-12-14T07:13:37;5.95;;;4.20;;
65717;SDS011;52445;52.466;-1.016;2023-12-14T07:16:05;4.18;;;3.03;;
65717;SDS011;52445;52.466;-1.016;2023-12-14T07:18:34;3.70;;;3.40;;
65717;SDS011;52445;52.466;-1.016;2023-12-14T07:21:03;6.22;;;2.17;;
65717;SDS011;52445;52.466;-1.016;2023-12-14T07:23:30;8.32;;;4.38;;
65717;SDS011;52445;52.466;-1.016;2023-12-14T07:25:57;5.50;;;3.05;;
65717;SDS011;52445;52.466;-1.016;2023-12-14T07:28:28;5.40;;;3.70;;
65717;SDS011;52445;52.466;-1.016;2023-12-14T07:30:54;4.40;;;3.50;;
65717;SDS011;52445;52.466;-1.016;2023-12-14T07:33:21;5.90;;;5.28;;
65717;SDS011;52445;52.466;-1.016;2023-12-14T07:35:48;4.50;;;3.78;;
65717;SDS011;52445;52.466;-1.016;2023-12-14T07:38:15;4.45;;;2.55;;
65717;SDS011;52445;52.466;-1.016;2023-12-14T07:40:42;4.72;;;3.45;;
65717;SDS011;52445;52.466;-1.016;2023-12-14T07:43:09;2.42;;;2.30;;
65717;SDS011;52445;52.466;-1.016;2023-12-14T07:45:35;4.05;;;3.60;;
65717;SDS011;52445;52.466;-1.016;2023-12-14T07:48:02;5.55;;;2.92;;
65717;SDS011;52445;52.466;-1.016;2023-12-14T07:50:30;6.75;;;2.97;;
65717;SDS011;52445;52.466;-1.016;2023-12-14T07:52:57;4.95;;;2.90;;
65717;SDS011;52445;52.466;-1.016;2023-12-14T07:55:24;9.68;;;4.95;;
65717;SDS011;52445;52.466;-1.016;2023-12-14T07:57:50;2.63;;;1.33;;
65717;SDS011;52445;52.466;-1.016;2023-12-14T08:00:17;3.10;;;2.30;;
65717;SDS011;52445;52.466;-1.016;2023-12-14T08:02:44;4.47;;;2.10;;
65717;SDS011;52445;52.466;-1.016;2023-12-14T08:05:11;7.22;;;2.97;;
65717;SDS011;52445;52.466;-1.016;2023-12-14T08:07:38;5.78;;;2.40;;
65717;SDS011;52445;52.466;-1.016;2023-12-14T08:10:05;5.30;;;2.78;;
65717;SDS011;52445;52.466;-1.016;2023-12-14T08:12:32;5.93;;;3.95;;
65717;SDS011;52445;52.466;-1.016;2023-12-14T08:14:59;3.10;;;2.40;;
65717;SDS011;52445;52.466;-1.016;2023-12-14T08:17:26;3.67;;;2.70;;
65717;SDS011;52445;52.466;-1.016;2023-12-14T08:19:54;6.25;;;2.90;;
65717;SDS011;52445;52.466;-1.016;2023-12-14T08:22:21;4.22;;;3.25;;
65717;SDS011;52445;52.466;-1.016;2023-12-14T08:24:48;4.53;;;3.20;;
65717;SDS011;52445;52.466;-1.016;2023-12-14T08:27:15;3.33;;;2.95;;
65717;SDS011;52445;52.466;-1.016;2023-12-14T08:29:42;4.82;;;1.33;;
65717;SDS011;52445;52.466;-1.016;2023-12-14T08:32:11;5.10;;;1.05;;
65717;SDS011;52445;52.466;-1.016;2023-12-14T08:34:37;4.63;;;3.05;;
65717;SDS011;52445;52.466;-1.016;2023-12-14T08:37:04;6.32;;;3.40;;
65717;SDS011;52445;52.466;-1.016;2023-12-14T08:39:31;5.68;;;3.28;;
65717;SDS011;52445;52.466;-1.016;2023-12-14T08:41:57;6.60;;;3.10;;
65717;SDS011;52445;52.466;-1.016;2023-12-14T08:44:24;3.97;;;2.88;;
65717;SDS011;52445;52.466;-1.016;2023-12-14T08:46:51;1.77;;;1.67;;
65717;SDS011;52445;52.466;-1.016;2023-12-14T08:49:17;4.28;;;3.30;;
65717;SDS011;52445;52.466;-1.016;2023-12-14T08:51:44;5.38;;;2.72;;
65717;SDS011;52445;52.466;-1.016;2023-12-14T08:54:12;3.70;;;2.85;;
65717;SDS011;52445;52.466;-1.016;2023-12-14T08:56:38;6.70;;;3.40;;
65717;SDS011;52445;52.466;-1.016;2023-12-14T08:59:05;2.78;;;2.30;;
65717;SDS011;52445;52.466;-1.016;2023-12-14T09:01:32;4.75;;;3.10;;
65717;SDS011;52445;52.466;-1.016;2023-12-14T09:03:58;4.63;;;3.15;;
65717;SDS011;52445;52.466;-1.016;2023-12-14T09:06:25;3.28;;;1.58;;
65717;SDS011;52445;52.466;-1.016;2023-12-14T09:08:52;4.57;;;3.83;;
65717;SDS011;52445;52.466;-1.016;2023-12-14T09:11:19;5.78;;;2.88;;
65717;SDS011;52445;52.466;-1.016;2023-12-14T09:13:46;6.50;;;3.28;;
65717;SDS011;52445;52.466;-1.016;2023-12-14T09:16:12;4.57;;;1.25;;
65717;SDS011;52445;52.466;-1.016;2023-12-14T09:18:39;5.65;;;2.70;;
65717;SDS011;52445;52.466;-1.016;2023-12-14T09:21:06;5.05;;;2.55;;
65717;SDS011;52445;52.466;-1.016;2023-12-14T09:23:32;6.93;;;2.90;;
65717;SDS011;52445;52.466;-1.016;2023-12-14T09:25:59;3.25;;;2.95;;
65717;SDS011;52445;52.466;-1.016;2023-12-14T09:28:26;5.90;;;3.92;;
65717;SDS011;52445;52.466;-1.016;2023-12-14T09:30:53;3.58;;;2.58;;
65717;SDS011;52445;52.466;-1.016;2023-12-14T09:33:20;7.03;;;3.25;;
65717;SDS011;52445;52.466;-1.016;2023-12-14T09:35:47;5.35;;;3.17;;
65717;SDS011;52445;52.466;-1.016;2023-12-14T09:38:13;6.65;;;2.90;;
65717;SDS011;52445;52.466;-1.016;2023-12-14T09:40:43;3.78;;;3.30;;
65717;SDS011;52445;52.466;-1.016;2023-12-14T09:43:11;5.25;;;3.90;;
65717;SDS011;52445;52.466;-1.016;2023-12-14T09:45:40;3.72;;;3.25;;
65717;SDS011;52445;52.466;-1.016;2023-12-14T09:48:11;4.88;;;2.83;;
65717;SDS011;52445;52.466;-1.016;2023-12-14T09:50:39;3.85;;;2.72;;
65717;SDS011;52445;52.466;-1.016;2023-12-14T09:53:06;5.53;;;2.30;;
65717;SDS011;52445;52.466;-1.016;2023-12-14T09:55:34;7.15;;;3.22;;
65717;SDS011;52445;52.466;-1.016;2023-12-14T09:58:01;4.78;;;3.80;;
65717;SDS011;52445;52.466;-1.016;2023-12-14T10:00:33;4.10;;;3.05;;
65717;SDS011;52445;52.466;-1.016;2023-12-14T10:03:18;3.30;;;2.85;;
65717;SDS011;52445;52.466;-1.016;2023-12-14T10:05:47;6.25;;;3.58;;
65717;SDS011;52445;52.466;-1.016;2023-12-14T10:08:16;3.42;;;3.13;;
65717;SDS011;52445;52.466;-1.016;2023-12-14T10:10:43;5.78;;;2.90;;
65717;SDS011;52445;52.466;-1.016;2023-12-14T10:13:11;6.93;;;3.88;;
65717;SDS011;52445;52.466;-1.016;2023-12-14T10:15:42;6.43;;;2.47;;
65717;SDS011;52445;52.466;-1.016;2023-12-14T10:18:11;5.80;;;3.30;;
65717;SDS011;52445;52.466;-1.016;2023-12-14T10:20:39;7.28;;;4.20;;
65717;SDS011;52445;52.466;-1.016;2023-12-14T10:23:07;5.28;;;4.18;;
65717;SDS011;52445;52.466;-1.016;2023-12-14T10:25:35;4.50;;;3.53;;
65717;SDS011;52445;52.466;-1.016;2023-12-14T10:28:02;5.55;;;3.67;;
65717;SDS011;52445;52.466;-1.016;2023-12-14T10:30:29;6.55;;;4.85;;
65717;SDS011;52445;52.466;-1.016;2023-12-14T10:33:00;10.10;;;4.80;;
65717;SDS011;52445;52.466;-1.016;2023-12-14T10:35:27;5.80;;;3.55;;
65717;SDS011;52445;52.466;-1.016;2023-12-14T10:37:54;7.00;;;3.97;;
65717;SDS011;52445;52.466;-1.016;2023-12-14T10:40:22;7.70;;;4.45;;
65717;SDS011;52445;52.466;-1.016;2023-12-14T10:42:51;7.53;;;3.75;;
65717;SDS011;52445;52.466;-1.016;2023-12-14T10:45:19;3.58;;;3.20;;
65717;SDS011;52445;52.466;-1.016;2023-12-14T10:47:52;12.50;;;5.55;;
65717;SDS011;52445;52.466;-1.016;2023-12-14T10:50:20;17.55;;;6.22;;
65717;SDS011;52445;52.466;-1.016;2023-12-14T10:52:48;14.80;;;6.82;;
65717;SDS011;52445;52.466;-1.016;2023-12-14T10:55:23;6.82;;;3.53;;
65717;SDS011;52445;52.466;-1.016;2023-12-14T10:57:54;20.30;;;7.38;;
65717;SDS011;52445;52.466;-1.016;2023-12-14T11:00:21;20.38;;;6.70;;
65717;SDS011;52445;52.466;-1.016;2023-12-14T11:02:48;30.02;;;8.77;;
65717;SDS011;52445;52.466;-1.016;2023-12-14T11:05:15;12.55;;;5.70;;
65717;SDS011;52445;52.466;-1.016;2023-12-14T11:10:26;20.23;;;6.90;;
65717;SDS011;52445;52.466;-1.016;2023-12-14T11:12:55;5.00;;;2.83;;
65717;SDS011;52445;52.466;-1.016;2023-12-14T11:15:33;12.88;;;3.80;;
65717;SDS011;52445;52.466;-1.016;2023-12-14T11:26:03;11.55;;;4.80;;
65717;SDS011;52445;52.466;-1.016;2023-12-14T11:30:59;10.32;;;4.78;;
65717;SDS011;52445;52.466;-1.016;2023-12-14T11:33:28;11.88;;;4.53;;
65717;SDS011;52445;52.466;-1.016;2023-12-14T11:35:55;7.40;;;4.22;;
65717;SDS011;52445;52.466;-1.016;2023-12-14T11:38:23;11.95;;;4.97;;
65717;SDS011;52445;52.466;-1.016;2023-12-14T11:40:51;13.25;;;5.25;;
65717;SDS011;52445;52.466;-1.016;2023-12-14T11:43:18;6.28;;;3.80;;
65717;SDS011;52445;52.466;-1.016;2023-12-14T11:45:48;7.05;;;4.40;;
65717;SDS011;52445;52.466;-1.016;2023-12-14T11:48:16;5.97;;;4.00;;
65717;SDS011;52445;52.466;-1.016;2023-12-14T11:50:43;12.05;;;5.03;;
65717;SDS011;52445;52.466;-1.016;2023-12-14T11:53:10;8.57;;;4.25;;
65717;SDS011;52445;52.466;-1.016;2023-12-14T11:55:38;22.15;;;7.53;;
65717;SDS011;52445;52.466;-1.016;2023-12-14T11:58:08;4.97;;;3.15;;
65717;SDS011;52445;52.466;-1.016;2023-12-14T12:00:35;9.05;;;4.88;;
65717;SDS011;52445;52.466;-1.016;2023-12-14T12:03:08;6.10;;;3.45;;
65717;SDS011;52445;52.466;-1.016;2023-12-14T12:05:44;12.52;;;5.50;;
65717;SDS011;52445;52.466;-1.016;2023-12-14T12:08:13;9.57;;;4.63;;
65717;SDS011;52445;52.466;-1.016;2023-12-14T12:10:41;10.27;;;4.95;;
65717;SDS011;52445;52.466;-1.016;2023-12-14T12:15:48;12.80;;;7.30;;
65717;SDS011;52445;52.466;-1.016;2023-12-14T12:18:16;16.17;;;7.20;;
65717;SDS011;52445;52.466;-1.016;2023-12-14T12:20:44;12.23;;;6.63;;
65717;SDS011;52445;52.466;-1.016;2023-12-14T12:23:11;10.30;;;5.72;;
65717;SDS011;52445;52.466;-1.016;2023-12-14T12:25:37;8.77;;;4.78;;
65717;SDS011;52445;52.466;-1.016;2023-12-14T12:28:04;9.65;;;3.60;;
65717;SDS011;52445;52.466;-1.016;2023-12-14T12:30:31;10.80;;;5.82;;
65717;SDS011;52445;52.466;-1.016;2023-12-14T12:32:58;3.53;;;2.30;;
65717;SDS011;52445;52.466;-1.016;2023-12-14T12:35:25;11.50;;;6.25;;
65717;SDS011;52445;52.466;-1.016;2023-12-14T12:37:52;17.38;;;6.90;;
65717;SDS011;52445;52.466;-1.016;2023-12-14T12:40:20;10.18;;;5.03;;
65717;SDS011;52445;52.466;-1.016;2023-12-14T12:42:48;14.35;;;6.13;;
65717;SDS011;52445;52.466;-1.016;2023-12-14T12:45:16;16.45;;;7.93;;
65717;SDS011;52445;52.466;-1.016;2023-12-14T12:47:45;11.60;;;7.70;;
65717;SDS011;52445;52.466;-1.016;2023-12-14T12:50:12;11.45;;;6.47;;
65717;SDS011;52445;52.466;-1.016;2023-12-14T12:52:39;22.38;;;9.70;;
65717;SDS011;52445;52.466;-1.016;2023-12-14T12:55:06;11.13;;;3.17;;
65717;SDS011;52445;52.466;-1.016;2023-12-14T12:57:33;12.02;;;6.70;;
65717;SDS011;52445;52.466;-1.016;2023-12-14T13:00:01;12.95;;;6.55;;
65717;SDS011;52445;52.466;-1.016;2023-12-14T13:02:30;9.07;;;4.80;;
65717;SDS011;52445;52.466;-1.016;2023-12-14T13:04:56;22.05;;;10.00;;
65717;SDS011;52445;52.466;-1.016;2023-12-14T13:07:24;18.77;;;7.35;;
65717;SDS011;52445;52.466;-1.016;2023-12-14T13:09:50;13.63;;;6.57;;
65717;SDS011;52445;52.466;-1.016;2023-12-14T13:12:17;18.42;;;5.22;;
65717;SDS011;52445;52.466;-1.016;2023-12-14T13:14:44;13.15;;;6.80;;
65717;SDS011;52445;52.466;-1.016;2023-12-14T13:17:10;18.88;;;8.50;;
65717;SDS011;52445;52.466;-1.016;2023-12-14T13:19:37;11.23;;;6.43;;
65717;SDS011;52445;52.466;-1.016;2023-12-14T13:22:04;15.82;;;7.10;;
65717;SDS011;52445;52.466;-1.016;2023-12-14T13:24:31;12.63;;;6.70;;
65717;SDS011;52445;52.466;-1.016;2023-12-14T13:26:57;11.95;;;7.38;;
65717;SDS011;52445;52.466;-1.016;2023-12-14T13:29:24;13.52;;;4.88;;
65717;SDS011;52445;52.466;-1.016;2023-12-14T13:31:51;15.05;;;8.73;;
65717;SDS011;52445;52.466;-1.016;2023-12-14T13:34:18;8.27;;;5.57;;
65717;SDS011;52445;52.466;-1.016;2023-12-14T13:36:44;12.35;;;6.63;;
65717;SDS011;52445;52.466;-1.016;2023-12-14T13:39:11;9.63;;;6.60;;
65717;SDS011;52445;52.466;-1.016;2023-12-14T13:41:38;10.73;;;6.82;;
65717;SDS011;52445;52.466;-1.016;2023-12-14T13:44:16;15.10;;;8.48;;
65717;SDS011;52445;52.466;-1.016;2023-12-14T13:46:43;13.20;;;5.95;;
65717;SDS011;52445;52.466;-1.016;2023-12-14T13:49:10;25.52;;;9.45;;
65717;SDS011;52445;52.466;-1.016;2023-12-14T13:51:36;52.60;;;17.08;;
65717;SDS011;52445;52.466;-1.016;2023-12-14T13:54:03;33.20;;;16.30;;
65717;SDS011;52445;52.466;-1.016;2023-12-14T13:56:30;17.85;;;11.27;;
65717;SDS011;52445;52.466;-1.016;2023-12-14T13:58:57;10.52;;;4.68;;
65717;SDS011;52445;52.466;-1.016;2023-12-14T14:01:24;10.02;;;6.45;;
65717;SDS011;52445;52.466;-1.016;2023-12-14T14:03:51;9.77;;;6.00;;
65717;SDS011;52445;52.466;-1.016;2023-12-14T14:06:18;6.63;;;4.72;;
65717;SDS011;52445;52.466;-1.016;2023-12-14T14:08:47;7.72;;;5.72;;
65717;SDS011;52445;52.466;-1.016;2023-12-14T14:11:13;11.23;;;6.88;;
65717;SDS011;52445;52.466;-1.016;2023-12-14T14:13:40;11.48;;;5.82;;
65717;SDS011;52445;52.466;-1.016;2023-12-14T14:16:07;11.38;;;6.40;;
65717;SDS011;52445;52.466;-1.016;2023-12-14T14:18:34;11.15;;;4.30;;
65717;SDS011;52445;52.466;-1.016;2023-12-14T14:21:01;9.35;;;6.60;;
65717;SDS011;52445;52.466;-1.016;2023-12-14T14:23:28;13.35;;;5.13;;
65717;SDS011;52445;52.466;-1.016;2023-12-14T14:25:58;13.80;;;7.95;;
65717;SDS011;52445;52.466;-1.016;2023-12-14T14:28:24;9.02;;;5.35;;
65717;SDS011;52445;52.466;-1.016;2023-12-14T14:30:51;11.25;;;5.68;;
65717;SDS011;52445;52.466;-1.016;2023-12-14T14:33:19;11.45;;;5.82;;
65717;SDS011;52445;52.466;-1.016;2023-12-14T14:35:46;9.02;;;4.30;;
65717;SDS011;52445;52.466;-1.016;2023-12-14T14:38:14;9.73;;;5.97;;
65717;SDS011;52445;52.466;-1.016;2023-12-14T14:40:41;10.05;;;3.65;;
65717;SDS011;52445;52.466;-1.016;2023-12-14T14:43:09;10.80;;;5.45;;
65717;SDS011;52445;52.466;-1.016;2023-12-14T14:45:36;9.95;;;5.82;;